Time;durP1;ratioP1;P1;durP2;ratioP2;P2;SDS_P1;SDS_P2;PMS_P1;PMS_P2;Temp;Humidity;BMP_temperature;BMP_pressure;BME280_temperature;BME280_humidity;BME280_pressure;Samples;Min_cycle;Max_cycle;Signal;HPM_P1;HPM_P2
2023/12/09 00:00:22;;;;;;;0.85;0.57;;;;;;;;;;4974041;28;20066;-77
2023/12/09 00:02:48;;;;;;;0.10;0.10;;;;;;;;;;4975074;28;20062;-77
2023/12/09 00:05:15;;;;;;;0.10;0.10;;;;;;;;;;4974454;28;20063;-78
2023/12/09 00:07:41;;;;;;;0.10;0.10;;;;;;;;;;4975484;28;20426;-77
2023/12/09 00:10:08;;;;;;;0.10;0.10;;;;;;;;;;4980165;28;20059;-79
2023/12/09 00:12:35;;;;;;;0.10;0.10;;;;;;;;;;4973450;28;20505;-78
2023/12/09 00:15:01;;;;;;;0.10;0.10;;;;;;;;;;4974344;28;20062;-77
2023/12/09 00:17:28;;;;;;;0.10;0.10;;;;;;;;;;4975443;28;20494;-78
2023/12/09 00:19:54;;;;;;;0.10;0.10;;;;;;;;;;4974330;28;20078;-77
2023/12/09 00:22:21;;;;;;;0.32;0.32;;;;;;;;;;4975078;28;20445;-79
2023/12/09 00:24:47;;;;;;;0.65;0.65;;;;;;;;;;4966570;28;20058;-79
2023/12/09 00:27:13;;;;;;;0.10;0.10;;;;;;;;;;4974523;28;20055;-78
2023/12/09 00:29:40;;;;;;;0.10;0.10;;;;;;;;;;4974547;28;20081;-77
2023/12/09 00:32:07;;;;;;;0.15;0.15;;;;;;;;;;4974222;28;20039;-77
2023/12/09 00:34:33;;;;;;;0.10;0.10;;;;;;;;;;4973098;28;20051;-77
2023/12/09 00:37:00;;;;;;;0.10;0.10;;;;;;;;;;4973589;28;20398;-77
2023/12/09 00:39:26;;;;;;;0.10;0.10;;;;;;;;;;4975010;28;20160;-81
2023/12/09 00:41:52;;;;;;;0.10;0.10;;;;;;;;;;4974417;28;20066;-78
2023/12/09 00:44:20;;;;;;;0.10;0.10;;;;;;;;;;4975156;28;20055;-77
2023/12/09 00:46:47;;;;;;;0.10;0.10;;;;;;;;;;4974826;28;20044;-78
2023/12/09 00:49:14;;;;;;;0.10;0.10;;;;;;;;;;4974229;28;20055;-78
2023/12/09 00:51:40;;;;;;;0.13;0.13;;;;;;;;;;4973896;28;20059;-77
2023/12/09 00:54:07;;;;;;;0.10;0.10;;;;;;;;;;4976613;28;20043;-77
2023/12/09 00:56:33;;;;;;;0.10;0.10;;;;;;;;;;4974949;28;20521;-77
2023/12/09 00:59:01;;;;;;;0.10;0.10;;;;;;;;;;4985525;28;20095;-77
2023/12/09 01:01:27;;;;;;;0.10;0.10;;;;;;;;;;4980931;28;20157;-79
2023/12/09 01:03:54;;;;;;;0.57;0.57;;;;;;;;;;4974019;28;20143;-77
2023/12/09 01:06:20;;;;;;;0.20;0.20;;;;;;;;;;4975303;28;20086;-78
2023/12/09 01:08:47;;;;;;;0.10;0.10;;;;;;;;;;4972079;28;20059;-79
2023/12/09 01:11:13;;;;;;;0.00;0.00;;;;;;;;;;4973306;28;20059;-79
2023/12/09 01:13:40;;;;;;;0.10;0.10;;;;;;;;;;4973541;28;20067;-81
2023/12/09 01:16:07;;;;;;;0.10;0.10;;;;;;;;;;4974296;28;20505;-77
2023/12/09 01:18:34;;;;;;;2.72;0.82;;;;;;;;;;4972566;28;20051;-78
2023/12/09 01:21:00;;;;;;;0.05;0.05;;;;;;;;;;4972340;28;20069;-80
2023/12/09 01:23:27;;;;;;;1.13;0.95;;;;;;;;;;4973018;28;20059;-79
2023/12/09 01:25:53;;;;;;;0.17;0.17;;;;;;;;;;4968872;28;20054;-77
2023/12/09 01:28:19;;;;;;;0.10;0.10;;;;;;;;;;4956693;28;20059;-77
2023/12/09 01:30:46;;;;;;;0.13;0.13;;;;;;;;;;4975662;28;20519;-77
2023/12/09 01:33:12;;;;;;;0.10;0.10;;;;;;;;;;4973454;28;20059;-78
2023/12/09 01:35:39;;;;;;;0.20;0.20;;;;;;;;;;4972726;28;20130;-77
2023/12/09 01:38:05;;;;;;;0.10;0.10;;;;;;;;;;4972620;28;20055;-81
2023/12/09 01:40:31;;;;;;;0.10;0.10;;;;;;;;;;4972333;28;20059;-81
2023/12/09 01:42:58;;;;;;;0.10;0.10;;;;;;;;;;4971834;28;20050;-78
2023/12/09 01:45:24;;;;;;;0.10;0.10;;;;;;;;;;4970946;28;20139;-80
2023/12/09 01:47:51;;;;;;;0.10;0.10;;;;;;;;;;4970676;28;20066;-80
2023/12/09 01:50:17;;;;;;;0.10;0.10;;;;;;;;;;4971072;28;20497;-80
2023/12/09 01:52:45;;;;;;;0.10;0.10;;;;;;;;;;4969356;28;20074;-77
2023/12/09 01:55:12;;;;;;;0.30;0.30;;;;;;;;;;4969843;28;20565;-81
2023/12/09 01:57:39;;;;;;;0.00;0.00;;;;;;;;;;4970944;28;20083;-80
2023/12/09 02:00:06;;;;;;;3.05;1.85;;;;;;;;;;4973683;28;20062;-79
2023/12/09 02:02:33;;;;;;;0.00;0.00;;;;;;;;;;4968563;28;20524;-77
2023/12/09 02:05:00;;;;;;;0.10;0.10;;;;;;;;;;4971741;28;20139;-80
2023/12/09 02:07:27;;;;;;;0.10;0.10;;;;;;;;;;4971430;28;20057;-79
2023/12/09 02:09:54;;;;;;;0.10;0.10;;;;;;;;;;4971234;28;20047;-77
2023/12/09 02:12:26;;;;;;;0.10;0.10;;;;;;;;;;4982886;28;20058;-77
2023/12/09 02:15:12;;;;;;;0.55;0.52;;;;;;;;;;4971355;28;20090;-78
2023/12/09 02:18:08;;;;;;;0.10;0.10;;;;;;;;;;4980743;28;20062;-78
2023/12/09 02:20:34;;;;;;;1.10;1.10;;;;;;;;;;4946144;28;20055;-77
2023/12/09 02:23:13;;;;;;;0.05;0.05;;;;;;;;;;4971661;28;20051;-77
2023/12/09 02:25:40;;;;;;;0.10;0.10;;;;;;;;;;4959896;28;20059;-79
2023/12/09 02:28:12;;;;;;;0.10;0.10;;;;;;;;;;4971778;28;20067;-78
2023/12/09 02:30:48;;;;;;;0.00;0.00;;;;;;;;;;4972905;28;20063;-78
2023/12/09 02:33:16;;;;;;;0.10;0.10;;;;;;;;;;4969221;28;20062;-78
2023/12/09 02:35:43;;;;;;;0.10;0.10;;;;;;;;;;4972221;28;20056;-78
2023/12/09 02:38:11;;;;;;;0.10;0.10;;;;;;;;;;4976738;28;20493;-78
2023/12/09 02:40:38;;;;;;;11.70;1.45;;;;;;;;;;4970069;28;20067;-78
2023/12/09 02:43:05;;;;;;;0.10;0.10;;;;;;;;;;4970600;28;20078;-79
2023/12/09 02:45:31;;;;;;;0.00;0.00;;;;;;;;;;4970979;28;20055;-79
2023/12/09 02:47:58;;;;;;;0.10;0.10;;;;;;;;;;4970521;28;20059;-78
2023/12/09 02:50:24;;;;;;;0.10;0.10;;;;;;;;;;4971164;28;20150;-80
2023/12/09 02:52:51;;;;;;;0.10;0.10;;;;;;;;;;4970506;28;20055;-78
2023/12/09 02:55:17;;;;;;;0.10;0.10;;;;;;;;;;4970634;28;20062;-79
2023/12/09 02:57:43;;;;;;;0.00;0.00;;;;;;;;;;4972806;28;20098;-82
2023/12/09 03:00:10;;;;;;;0.10;0.10;;;;;;;;;;4977820;28;20978;-79
2023/12/09 03:02:36;;;;;;;0.10;0.10;;;;;;;;;;4970101;28;20066;-82
2023/12/09 03:05:03;;;;;;;0.10;0.10;;;;;;;;;;4969915;28;20064;-78
2023/12/09 03:07:30;;;;;;;0.10;0.10;;;;;;;;;;4971005;28;20063;-78
2023/12/09 03:09:56;;;;;;;0.08;0.08;;;;;;;;;;4970909;28;20066;-80
2023/12/09 03:12:22;;;;;;;0.10;0.10;;;;;;;;;;4970852;28;20047;-79
2023/12/09 03:14:49;;;;;;;0.63;0.63;;;;;;;;;;4971443;28;20059;-78
2023/12/09 03:17:17;;;;;;;0.10;0.10;;;;;;;;;;4981211;28;20091;-79
2023/12/09 03:19:43;;;;;;;0.10;0.10;;;;;;;;;;4959621;28;20130;-79
2023/12/09 03:22:09;;;;;;;0.10;0.10;;;;;;;;;;4970962;28;20055;-78
2023/12/09 03:24:36;;;;;;;0.10;0.10;;;;;;;;;;4972163;28;20086;-78
2023/12/09 03:27:02;;;;;;;0.10;0.10;;;;;;;;;;4968959;28;20067;-79
2023/12/09 03:29:29;;;;;;;0.10;0.10;;;;;;;;;;4971015;28;20062;-82
2023/12/09 03:31:55;;;;;;;0.10;0.10;;;;;;;;;;4971502;28;20125;-82
2023/12/09 03:34:22;;;;;;;0.10;0.10;;;;;;;;;;4969814;28;20055;-79
2023/12/09 03:36:48;;;;;;;0.10;0.10;;;;;;;;;;4971606;28;20146;-79
2023/12/09 03:39:15;;;;;;;0.08;0.08;;;;;;;;;;4974245;28;20062;-82
2023/12/09 03:41:42;;;;;;;0.98;0.90;;;;;;;;;;4975720;28;20059;-80
2023/12/09 03:44:08;;;;;;;0.10;0.10;;;;;;;;;;4973414;28;20565;-79
2023/12/09 03:46:35;;;;;;;0.10;0.10;;;;;;;;;;4973212;28;20125;-78
2023/12/09 03:49:01;;;;;;;0.10;0.10;;;;;;;;;;4957519;28;20592;-78
2023/12/09 03:51:28;;;;;;;0.10;0.10;;;;;;;;;;4973780;28;20052;-79
2023/12/09 03:53:54;;;;;;;0.10;0.10;;;;;;;;;;4973892;28;20043;-79
2023/12/09 03:56:21;;;;;;;0.10;0.10;;;;;;;;;;4972891;28;20083;-80
2023/12/09 03:58:48;;;;;;;0.10;0.10;;;;;;;;;;4976686;28;20095;-80
2023/12/09 04:01:14;;;;;;;0.10;0.10;;;;;;;;;;4979928;28;20510;-82
2023/12/09 04:03:41;;;;;;;0.10;0.10;;;;;;;;;;4978651;28;20087;-79
2023/12/09 04:06:08;;;;;;;0.10;0.10;;;;;;;;;;4972245;28;20102;-78
2023/12/09 04:08:35;;;;;;;0.10;0.10;;;;;;;;;;4972825;28;20803;-82
2023/12/09 04:11:03;;;;;;;0.13;0.13;;;;;;;;;;4971343;28;20526;-79
2023/12/09 04:13:29;;;;;;;0.10;0.10;;;;;;;;;;4986944;28;20150;-78
2023/12/09 04:15:55;;;;;;;0.90;0.85;;;;;;;;;;4971404;28;20055;-81
2023/12/09 04:18:22;;;;;;;0.10;0.10;;;;;;;;;;4972894;28;20055;-79
2023/12/09 04:20:49;;;;;;;0.10;0.10;;;;;;;;;;4975383;28;20919;-78
2023/12/09 04:23:15;;;;;;;0.10;0.10;;;;;;;;;;4970957;28;20047;-78
2023/12/09 04:25:42;;;;;;;0.10;0.10;;;;;;;;;;4971456;28;20162;-78
2023/12/09 04:28:08;;;;;;;0.10;0.10;;;;;;;;;;4972237;28;20055;-78
2023/12/09 04:30:35;;;;;;;0.10;0.10;;;;;;;;;;4970629;28;20055;-79
2023/12/09 04:33:02;;;;;;;0.10;0.10;;;;;;;;;;4953751;28;20058;-78
2023/12/09 04:35:28;;;;;;;0.10;0.10;;;;;;;;;;4972266;28;20151;-82
2023/12/09 04:37:55;;;;;;;0.13;0.13;;;;;;;;;;4971018;28;20051;-82
2023/12/09 04:40:21;;;;;;;0.10;0.10;;;;;;;;;;4973312;28;20170;-80
2023/12/09 04:42:48;;;;;;;0.10;0.10;;;;;;;;;;4974854;28;20083;-78
2023/12/09 04:45:14;;;;;;;0.20;0.20;;;;;;;;;;4976623;28;20499;-78
2023/12/09 04:47:41;;;;;;;0.00;0.00;;;;;;;;;;4978781;28;20054;-78
2023/12/09 04:50:08;;;;;;;0.10;0.10;;;;;;;;;;4973609;28;20055;-78
2023/12/09 04:52:38;;;;;;;0.10;0.10;;;;;;;;;;4971698;28;20066;-81
2023/12/09 04:55:04;;;;;;;0.10;0.10;;;;;;;;;;4971804;28;20059;-78
2023/12/09 04:57:31;;;;;;;0.10;0.10;;;;;;;;;;4961973;28;20055;-78
2023/12/09 04:59:58;;;;;;;0.15;0.15;;;;;;;;;;4975660;28;20063;-79
2023/12/09 05:02:25;;;;;;;0.00;0.00;;;;;;;;;;4972888;28;20114;-78
2023/12/09 05:04:52;;;;;;;1.77;1.48;;;;;;;;;;4957506;28;20065;-78
2023/12/09 05:07:19;;;;;;;0.10;0.10;;;;;;;;;;5056956;23;20239;-81
2023/12/09 05:09:45;;;;;;;0.10;0.10;;;;;;;;;;5003036;28;20065;-80
2023/12/09 05:12:12;;;;;;;0.10;0.10;;;;;;;;;;5008206;28;20177;-81
2023/12/09 05:14:39;;;;;;;0.10;0.10;;;;;;;;;;5008682;28;20058;-81
2023/12/09 05:17:05;;;;;;;0.10;0.10;;;;;;;;;;5024135;28;20603;-80
2023/12/09 05:19:31;;;;;;;0.10;0.10;;;;;;;;;;5009318;28;20050;-79
2023/12/09 05:22:01;;;;;;;0.10;0.10;;;;;;;;;;5009091;28;20061;-80
2023/12/09 05:24:27;;;;;;;0.10;0.10;;;;;;;;;;5009225;28;20089;-79
2023/12/09 05:26:54;;;;;;;0.20;0.20;;;;;;;;;;5027347;28;20059;-80
2023/12/09 05:29:22;;;;;;;0.10;0.10;;;;;;;;;;5009002;28;20054;-80
2023/12/09 05:31:48;;;;;;;0.10;0.10;;;;;;;;;;5026128;28;20132;-80
2023/12/09 05:34:15;;;;;;;0.10;0.10;;;;;;;;;;5011645;28;20062;-79
2023/12/09 05:36:41;;;;;;;0.10;0.10;;;;;;;;;;5011452;28;20058;-79
2023/12/09 05:39:08;;;;;;;0.20;0.20;;;;;;;;;;5010272;28;20054;-80
2023/12/09 05:41:34;;;;;;;0.10;0.10;;;;;;;;;;5012101;28;20109;-78
2023/12/09 05:44:01;;;;;;;0.20;0.20;;;;;;;;;;5024355;28;20057;-78
2023/12/09 05:46:27;;;;;;;0.15;0.15;;;;;;;;;;5009840;28;20054;-79
2023/12/09 05:48:54;;;;;;;0.10;0.10;;;;;;;;;;5025885;28;20055;-79
2023/12/09 05:51:20;;;;;;;0.10;0.10;;;;;;;;;;5026820;28;20058;-79
2023/12/09 05:53:47;;;;;;;0.10;0.10;;;;;;;;;;5009639;28;20058;-79
2023/12/09 05:56:13;;;;;;;0.10;0.10;;;;;;;;;;5008478;28;20058;-79
2023/12/09 05:58:40;;;;;;;0.20;0.20;;;;;;;;;;5010276;28;20050;-79
2023/12/09 06:01:06;;;;;;;0.10;0.10;;;;;;;;;;5025529;28;20061;-79
2023/12/09 06:03:33;;;;;;;0.10;0.10;;;;;;;;;;5010845;28;20512;-79
2023/12/09 06:06:00;;;;;;;0.10;0.10;;;;;;;;;;5010759;28;20141;-79
2023/12/09 06:08:26;;;;;;;0.20;0.20;;;;;;;;;;5009521;28;20054;-79
2023/12/09 06:10:52;;;;;;;0.10;0.10;;;;;;;;;;5007202;28;20125;-80
2023/12/09 06:13:19;;;;;;;0.10;0.10;;;;;;;;;;5025795;28;20531;-80
2023/12/09 06:15:45;;;;;;;0.10;0.10;;;;;;;;;;5013833;28;20065;-78
2023/12/09 06:18:16;;;;;;;0.20;0.20;;;;;;;;;;5008084;28;20057;-78
2023/12/09 06:20:42;;;;;;;0.10;0.10;;;;;;;;;;5009598;28;20512;-78
2023/12/09 06:23:09;;;;;;;0.10;0.10;;;;;;;;;;5006449;28;20200;-78
2023/12/09 06:25:35;;;;;;;0.10;0.10;;;;;;;;;;5008129;28;20058;-78
2023/12/09 06:28:02;;;;;;;0.10;0.10;;;;;;;;;;5006482;28;20062;-78
2023/12/09 06:30:29;;;;;;;3.50;2.50;;;;;;;;;;5024263;28;20058;-78
2023/12/09 06:32:55;;;;;;;0.10;0.10;;;;;;;;;;5011052;28;20086;-78
2023/12/09 06:35:22;;;;;;;0.10;0.10;;;;;;;;;;5008195;28;20078;-78
2023/12/09 06:37:48;;;;;;;0.10;0.10;;;;;;;;;;5023540;28;20109;-78
2023/12/09 06:40:15;;;;;;;0.10;0.10;;;;;;;;;;5007608;28;20062;-78
2023/12/09 06:42:41;;;;;;;2.15;1.52;;;;;;;;;;5008475;28;20094;-78
2023/12/09 06:45:08;;;;;;;0.10;0.10;;;;;;;;;;5008481;28;20062;-79
2023/12/09 06:47:34;;;;;;;0.10;0.10;;;;;;;;;;5024514;28;20539;-78
2023/12/09 06:50:01;;;;;;;0.10;0.10;;;;;;;;;;5011128;28;20050;-78
2023/12/09 06:52:28;;;;;;;1.98;1.85;;;;;;;;;;5008128;28;20141;-78
2023/12/09 06:54:54;;;;;;;0.10;0.10;;;;;;;;;;5022709;28;20093;-78
2023/12/09 06:57:21;;;;;;;0.10;0.10;;;;;;;;;;5022931;28;20085;-78
2023/12/09 06:59:47;;;;;;;0.10;0.10;;;;;;;;;;5008479;28;20517;-79
2023/12/09 07:02:14;;;;;;;0.10;0.10;;;;;;;;;;5023716;28;20051;-78
2023/12/09 07:04:40;;;;;;;0.10;0.10;;;;;;;;;;5008686;28;20065;-79
2023/12/09 07:07:07;;;;;;;0.10;0.10;;;;;;;;;;5009665;28;20105;-80
2023/12/09 07:09:43;;;;;;;0.10;0.10;;;;;;;;;;5009873;28;20054;-79
2023/12/09 07:12:10;;;;;;;0.10;0.10;;;;;;;;;;5010348;28;20050;-80
2023/12/09 07:14:36;;;;;;;0.10;0.10;;;;;;;;;;5012723;28;20170;-79
2023/12/09 07:17:03;;;;;;;0.30;0.30;;;;;;;;;;5011959;28;20050;-81
2023/12/09 07:19:29;;;;;;;0.10;0.10;;;;;;;;;;5011358;28;20869;-80
2023/12/09 07:21:56;;;;;;;0.10;0.10;;;;;;;;;;5011902;28;20051;-80
2023/12/09 07:24:22;;;;;;;0.10;0.10;;;;;;;;;;5010339;28;20594;-79
2023/12/09 07:26:49;;;;;;;0.10;0.10;;;;;;;;;;5011396;28;20065;-80
2023/12/09 07:29:16;;;;;;;0.10;0.10;;;;;;;;;;5012374;28;20451;-80
2023/12/09 07:31:42;;;;;;;0.10;0.10;;;;;;;;;;5023312;28;20947;-79
2023/12/09 07:34:15;;;;;;;0.10;0.10;;;;;;;;;;5023148;28;20043;-79
2023/12/09 07:36:42;;;;;;;0.10;0.10;;;;;;;;;;5002110;28;20084;-79
2023/12/09 07:39:09;;;;;;;0.10;0.10;;;;;;;;;;5007795;28;20575;-78
2023/12/09 07:41:35;;;;;;;0.15;0.15;;;;;;;;;;5004269;28;20153;-77
2023/12/09 07:44:02;;;;;;;0.17;0.17;;;;;;;;;;5007240;28;20129;-78
2023/12/09 07:46:28;;;;;;;0.10;0.10;;;;;;;;;;5007373;28;20138;-78
2023/12/09 07:48:55;;;;;;;1.55;1.45;;;;;;;;;;5023742;28;20101;-79
2023/12/09 07:51:25;;;;;;;0.10;0.10;;;;;;;;;;5008113;28;20072;-78
2023/12/09 07:53:51;;;;;;;0.10;0.10;;;;;;;;;;5010198;28;20062;-79
2023/12/09 07:56:17;;;;;;;0.10;0.10;;;;;;;;;;5021165;28;20046;-79
2023/12/09 07:58:45;;;;;;;0.10;0.10;;;;;;;;;;5005075;28;20483;-79
2023/12/09 08:01:12;;;;;;;0.10;0.10;;;;;;;;;;5010304;28;20058;-79
2023/12/09 08:03:38;;;;;;;0.10;0.10;;;;;;;;;;5007715;28;20054;-78
2023/12/09 08:06:06;;;;;;;0.10;0.10;;;;;;;;;;5025150;28;20058;-79
2023/12/09 08:08:33;;;;;;;0.10;0.10;;;;;;;;;;5007175;28;20092;-78
2023/12/09 08:11:01;;;;;;;0.20;0.20;;;;;;;;;;5009963;28;20145;-79
2023/12/09 08:13:27;;;;;;;0.35;0.35;;;;;;;;;;5009958;28;20059;-79
2023/12/09 08:15:54;;;;;;;0.10;0.10;;;;;;;;;;5015922;28;20109;-79
2023/12/09 08:18:20;;;;;;;0.10;0.10;;;;;;;;;;5013819;28;20102;-79
2023/12/09 08:20:47;;;;;;;0.10;0.10;;;;;;;;;;5008984;28;20105;-79
2023/12/09 08:23:14;;;;;;;0.10;0.10;;;;;;;;;;5006772;28;20592;-79
2023/12/09 08:25:43;;;;;;;0.10;0.10;;;;;;;;;;5007446;28;20051;-79
2023/12/09 08:28:09;;;;;;;0.10;0.10;;;;;;;;;;5024679;28;20125;-79
2023/12/09 08:30:36;;;;;;;0.10;0.10;;;;;;;;;;5016388;28;20061;-78
2023/12/09 08:33:03;;;;;;;0.10;0.10;;;;;;;;;;5003272;28;20055;-78
2023/12/09 08:35:30;;;;;;;0.10;0.10;;;;;;;;;;5022363;28;20066;-78
2023/12/09 08:37:57;;;;;;;0.10;0.10;;;;;;;;;;5008832;28;20054;-78
2023/12/09 08:40:23;;;;;;;0.20;0.20;;;;;;;;;;4999468;28;20051;-78
2023/12/09 08:42:50;;;;;;;0.10;0.10;;;;;;;;;;5006219;28;20093;-78
2023/12/09 08:45:17;;;;;;;0.10;0.10;;;;;;;;;;5010684;28;20054;-79
2023/12/09 08:47:43;;;;;;;0.10;0.10;;;;;;;;;;5008133;28;21284;-79
2023/12/09 08:50:11;;;;;;;0.10;0.10;;;;;;;;;;5007517;28;20054;-79
2023/12/09 08:52:50;;;;;;;0.10;0.10;;;;;;;;;;5004674;28;20113;-79
2023/12/09 08:55:17;;;;;;;0.10;0.10;;;;;;;;;;4992160;28;20051;-78
2023/12/09 08:57:43;;;;;;;0.10;0.10;;;;;;;;;;5007176;28;20050;-78
2023/12/09 09:00:10;;;;;;;0.10;0.10;;;;;;;;;;5007703;28;20145;-79
2023/12/09 09:02:37;;;;;;;0.10;0.10;;;;;;;;;;5006824;28;20137;-78
2023/12/09 09:05:03;;;;;;;0.10;0.10;;;;;;;;;;5001876;28;20133;-78
2023/12/09 09:07:30;;;;;;;0.10;0.10;;;;;;;;;;5006975;28;20050;-79
2023/12/09 09:09:56;;;;;;;0.65;0.65;;;;;;;;;;5006075;28;20049;-79
2023/12/09 09:12:23;;;;;;;0.10;0.10;;;;;;;;;;5005622;28;20108;-80
2023/12/09 09:14:50;;;;;;;0.25;0.25;;;;;;;;;;5008817;28;20054;-79
2023/12/09 09:17:16;;;;;;;0.10;0.10;;;;;;;;;;5009006;28;20042;-80
2023/12/09 09:19:43;;;;;;;0.10;0.10;;;;;;;;;;5008816;28;20050;-80
2023/12/09 09:22:09;;;;;;;0.10;0.10;;;;;;;;;;5007807;28;20052;-80
2023/12/09 09:24:36;;;;;;;0.10;0.10;;;;;;;;;;5006953;28;20057;-80
2023/12/09 09:27:03;;;;;;;0.10;0.10;;;;;;;;;;5010483;28;20054;-80
2023/12/09 09:29:29;;;;;;;0.10;0.10;;;;;;;;;;5009249;28;20054;-80
2023/12/09 09:31:55;;;;;;;0.10;0.10;;;;;;;;;;5007493;28;20130;-80
2023/12/09 09:34:22;;;;;;;0.10;0.10;;;;;;;;;;5004481;28;20122;-80
2023/12/09 09:36:49;;;;;;;0.10;0.10;;;;;;;;;;5007180;28;20713;-80
2023/12/09 09:39:16;;;;;;;0.10;0.10;;;;;;;;;;5009656;28;20058;-79
2023/12/09 09:41:42;;;;;;;0.10;0.10;;;;;;;;;;5007670;28;20090;-79
2023/12/09 09:44:17;;;;;;;0.00;0.00;;;;;;;;;;5023034;28;20362;-80
2023/12/09 09:46:44;;;;;;;0.10;0.10;;;;;;;;;;5003526;28;20596;-79
2023/12/09 09:49:11;;;;;;;0.10;0.10;;;;;;;;;;5007163;28;20211;-79
2023/12/09 09:51:42;;;;;;;0.10;0.10;;;;;;;;;;5004654;28;20054;-78
2023/12/09 09:54:23;;;;;;;0.10;0.10;;;;;;;;;;5005972;28;20117;-78
2023/12/09 09:56:50;;;;;;;0.00;0.00;;;;;;;;;;5006552;28;20054;-79
2023/12/09 09:59:20;;;;;;;0.10;0.10;;;;;;;;;;5006812;28;20054;-79
2023/12/09 10:01:47;;;;;;;1.33;1.25;;;;;;;;;;5006715;28;20162;-81
2023/12/09 10:04:13;;;;;;;0.10;0.10;;;;;;;;;;5007874;28;20058;-81
2023/12/09 10:06:41;;;;;;;0.10;0.10;;;;;;;;;;5007332;28;20057;-80
2023/12/09 10:09:08;;;;;;;0.10;0.10;;;;;;;;;;5009131;28;20043;-81
2023/12/09 10:11:34;;;;;;;0.10;0.10;;;;;;;;;;5005486;28;20058;-81
2023/12/09 10:14:01;;;;;;;0.10;0.10;;;;;;;;;;5007734;28;20102;-81
2023/12/09 10:16:27;;;;;;;0.10;0.10;;;;;;;;;;5007940;28;20065;-82
2023/12/09 10:18:53;;;;;;;0.25;0.25;;;;;;;;;;5007327;28;20501;-81
2023/12/09 10:21:20;;;;;;;0.10;0.10;;;;;;;;;;5005844;28;20061;-82
2023/12/09 10:23:47;;;;;;;0.10;0.10;;;;;;;;;;5004887;28;20068;-81
2023/12/09 10:26:14;;;;;;;0.10;0.10;;;;;;;;;;5014879;28;20055;-81
2023/12/09 10:28:41;;;;;;;0.10;0.10;;;;;;;;;;5008519;28;20398;-82
2023/12/09 10:31:08;;;;;;;0.03;0.03;;;;;;;;;;5006280;28;20061;-81
2023/12/09 10:33:34;;;;;;;0.10;0.10;;;;;;;;;;5022533;28;20090;-80
2023/12/09 10:36:01;;;;;;;0.10;0.10;;;;;;;;;;5015270;28;20540;-82
2023/12/09 10:38:28;;;;;;;0.10;0.10;;;;;;;;;;5006895;28;20125;-81
2023/12/09 10:40:54;;;;;;;0.08;0.08;;;;;;;;;;5022353;28;20077;-81
2023/12/09 10:43:21;;;;;;;0.10;0.10;;;;;;;;;;5016751;28;20070;-80
2023/12/09 10:45:47;;;;;;;0.10;0.10;;;;;;;;;;5004763;28;20110;-81
2023/12/09 10:48:14;;;;;;;0.10;0.10;;;;;;;;;;5009779;28;20521;-80
2023/12/09 10:50:44;;;;;;;0.10;0.10;;;;;;;;;;5011173;28;20078;-81
2023/12/09 10:53:10;;;;;;;0.35;0.35;;;;;;;;;;5024559;28;20947;-81
2023/12/09 10:55:36;;;;;;;0.10;0.10;;;;;;;;;;5026661;28;20061;-81
2023/12/09 10:58:04;;;;;;;0.03;0.03;;;;;;;;;;5026491;28;20056;-81
2023/12/09 11:00:32;;;;;;;0.25;0.25;;;;;;;;;;5009838;28;20055;-80
2023/12/09 11:02:58;;;;;;;0.00;0.00;;;;;;;;;;5025803;28;20062;-81
2023/12/09 11:05:25;;;;;;;0.10;0.10;;;;;;;;;;5009743;28;20062;-79
2023/12/09 11:07:53;;;;;;;0.15;0.15;;;;;;;;;;5008767;28;20054;-81
2023/12/09 11:10:20;;;;;;;0.10;0.10;;;;;;;;;;5011176;28;20065;-80
2023/12/09 11:12:47;;;;;;;0.00;0.00;;;;;;;;;;5009205;28;20065;-81
2023/12/09 11:15:14;;;;;;;0.10;0.10;;;;;;;;;;5010824;28;20062;-80
2023/12/09 11:17:41;;;;;;;0.13;0.13;;;;;;;;;;5023205;28;20093;-80
2023/12/09 11:20:09;;;;;;;0.00;0.00;;;;;;;;;;5010198;28;20043;-79
2023/12/09 11:22:38;;;;;;;0.10;0.10;;;;;;;;;;5013232;28;20055;-80
2023/12/09 11:25:04;;;;;;;0.30;0.30;;;;;;;;;;5009584;28;20058;-80
2023/12/09 11:27:34;;;;;;;0.10;0.10;;;;;;;;;;5010980;28;20527;-80
2023/12/09 11:30:01;;;;;;;0.10;0.10;;;;;;;;;;5008788;28;20432;-81
2023/12/09 11:32:29;;;;;;;0.00;0.00;;;;;;;;;;5011399;28;20856;-82
2023/12/09 11:34:57;;;;;;;0.15;0.15;;;;;;;;;;5007225;28;20065;-82
2023/12/09 11:37:27;;;;;;;0.10;0.10;;;;;;;;;;5007873;28;20097;-79
2023/12/09 11:39:55;;;;;;;0.10;0.10;;;;;;;;;;5009726;28;20125;-82
2023/12/09 11:42:22;;;;;;;0.10;0.10;;;;;;;;;;5009167;28;20062;-81
2023/12/09 11:44:49;;;;;;;0.10;0.10;;;;;;;;;;5010024;28;20080;-83
2023/12/09 11:47:18;;;;;;;0.10;0.10;;;;;;;;;;5010180;28;21000;-80
2023/12/09 11:49:46;;;;;;;0.10;0.10;;;;;;;;;;5010239;28;20065;-80
2023/12/09 11:52:12;;;;;;;0.10;0.10;;;;;;;;;;5010655;28;20400;-79
2023/12/09 11:54:39;;;;;;;0.10;0.10;;;;;;;;;;5009479;28;20050;-81
2023/12/09 11:57:05;;;;;;;0.05;0.05;;;;;;;;;;5008451;28;20064;-79
2023/12/09 11:59:32;;;;;;;0.10;0.10;;;;;;;;;;5005120;28;20054;-81
2023/12/09 12:01:58;;;;;;;0.10;0.10;;;;;;;;;;5005584;28;20062;-79
2023/12/09 12:04:26;;;;;;;0.00;0.00;;;;;;;;;;5009103;28;20144;-79
2023/12/09 12:06:52;;;;;;;0.20;0.20;;;;;;;;;;5008470;28;20050;-79
2023/12/09 12:09:19;;;;;;;0.00;0.00;;;;;;;;;;5007428;28;20078;-79
2023/12/09 12:11:45;;;;;;;0.10;0.10;;;;;;;;;;5007600;28;20145;-82
2023/12/09 12:14:12;;;;;;;0.10;0.10;;;;;;;;;;5006804;28;20059;-82
2023/12/09 12:16:38;;;;;;;0.10;0.10;;;;;;;;;;5006445;28;20819;-80
2023/12/09 12:19:05;;;;;;;0.03;0.03;;;;;;;;;;5005217;28;20543;-83
2023/12/09 12:21:31;;;;;;;0.17;0.17;;;;;;;;;;5001563;28;20055;-79
2023/12/09 12:24:01;;;;;;;0.10;0.10;;;;;;;;;;5008226;28;20062;-78
2023/12/09 12:26:27;;;;;;;0.10;0.10;;;;;;;;;;5007409;28;20054;-79
2023/12/09 12:28:54;;;;;;;0.10;0.10;;;;;;;;;;5004033;28;20137;-79
2023/12/09 12:31:22;;;;;;;0.50;0.47;;;;;;;;;;5006384;28;20065;-78
2023/12/09 12:33:49;;;;;;;0.10;0.10;;;;;;;;;;5021935;28;20046;-81
2023/12/09 12:36:16;;;;;;;0.00;0.00;;;;;;;;;;5006091;28;20504;-78
2023/12/09 12:38:44;;;;;;;0.10;0.10;;;;;;;;;;5005251;28;20061;-78
2023/12/09 12:41:11;;;;;;;0.10;0.10;;;;;;;;;;5003363;28;20062;-78
2023/12/09 12:43:37;;;;;;;0.10;0.10;;;;;;;;;;5006123;28;20061;-80
2023/12/09 12:46:04;;;;;;;0.00;0.00;;;;;;;;;;5008012;28;20051;-78
2023/12/09 12:48:30;;;;;;;0.10;0.10;;;;;;;;;;5006685;28;20145;-79
2023/12/09 12:50:57;;;;;;;0.10;0.10;;;;;;;;;;5005630;28;20050;-80
2023/12/09 12:53:27;;;;;;;0.22;0.22;;;;;;;;;;5006115;28;20059;-78
2023/12/09 12:55:54;;;;;;;0.10;0.10;;;;;;;;;;5006753;28;20059;-81
2023/12/09 12:58:22;;;;;;;0.10;0.10;;;;;;;;;;5020172;28;20149;-78
2023/12/09 13:00:49;;;;;;;0.20;0.20;;;;;;;;;;5007459;28;20977;-80
2023/12/09 13:03:16;;;;;;;0.32;0.32;;;;;;;;;;5005703;28;20175;-78
2023/12/09 13:05:56;;;;;;;0.10;0.10;;;;;;;;;;5006985;28;20050;-79
2023/12/09 13:08:23;;;;;;;0.30;0.20;;;;;;;;;;5005186;28;20058;-80
2023/12/09 13:10:52;;;;;;;0.60;0.60;;;;;;;;;;5007051;28;20054;-78
2023/12/09 13:13:33;;;;;;;0.38;0.38;;;;;;;;;;5002110;28;20058;-78
2023/12/09 13:16:01;;;;;;;0.30;0.30;;;;;;;;;;5022725;28;20507;-81
2023/12/09 13:18:29;;;;;;;0.20;0.20;;;;;;;;;;5025291;28;20064;-79
2023/12/09 13:20:57;;;;;;;0.10;0.10;;;;;;;;;;5021126;28;20074;-81
2023/12/09 13:23:24;;;;;;;0.10;0.10;;;;;;;;;;5018748;28;20226;-79
2023/12/09 13:25:50;;;;;;;0.10;0.10;;;;;;;;;;5008475;28;20054;-78
2023/12/09 13:28:18;;;;;;;0.10;0.10;;;;;;;;;;5006653;28;20115;-78
2023/12/09 13:30:44;;;;;;;0.10;0.10;;;;;;;;;;5008002;28;20056;-78
2023/12/09 13:33:13;;;;;;;0.10;0.10;;;;;;;;;;5022091;28;20523;-79
2023/12/09 13:35:40;;;;;;;0.10;0.10;;;;;;;;;;5009581;28;20058;-79
2023/12/09 13:38:23;;;;;;;0.10;0.10;;;;;;;;;;5004038;28;20065;-78
2023/12/09 13:41:03;;;;;;;0.10;0.10;;;;;;;;;;5023409;28;20082;-78
2023/12/09 13:44:01;;;;;;;0.10;0.10;;;;;;;;;;5006361;28;20054;-79
2023/12/09 13:46:40;;;;;;;0.10;0.10;;;;;;;;;;5019286;28;20638;-78
2023/12/09 13:49:09;;;;;;;0.20;0.20;;;;;;;;;;5014620;28;20046;-79
2023/12/09 13:51:49;;;;;;;0.10;0.10;;;;;;;;;;5006218;28;20101;-79
2023/12/09 13:54:22;;;;;;;0.10;0.10;;;;;;;;;;5020724;28;20057;-79
2023/12/09 13:56:54;;;;;;;0.10;0.10;;;;;;;;;;5006642;28;20571;-79
2023/12/09 13:59:31;;;;;;;0.10;0.10;;;;;;;;;;5004395;28;20054;-78
2023/12/09 14:02:07;;;;;;;0.10;0.10;;;;;;;;;;5004932;28;20057;-77
2023/12/09 14:04:35;;;;;;;0.10;0.10;;;;;;;;;;5005012;28;20530;-78
2023/12/09 14:07:02;;;;;;;0.10;0.10;;;;;;;;;;5007274;28;20143;-78
2023/12/09 14:09:29;;;;;;;0.10;0.10;;;;;;;;;;5006253;28;20091;-79
2023/12/09 14:12:04;;;;;;;0.10;0.10;;;;;;;;;;4998229;28;21412;-77
2023/12/09 14:14:34;;;;;;;0.10;0.10;;;;;;;;;;5017041;28;20165;-77
2023/12/09 14:17:00;;;;;;;0.10;0.10;;;;;;;;;;5011870;28;20615;-78
2023/12/09 14:19:28;;;;;;;0.10;0.10;;;;;;;;;;5004746;28;20058;-78
2023/12/09 14:21:58;;;;;;;;;;;;;;;;;;5003988;28;20128;-78
2023/12/09 14:24:36;;;;;;;0.30;0.30;;;;;;;;;;5002522;28;47237;-80
2023/12/09 14:27:08;;;;;;;0.10;0.10;;;;;;;;;;5010933;28;20060;-78
2023/12/09 14:29:45;;;;;;;0.10;0.10;;;;;;;;;;5008598;28;20084;-78
2023/12/09 14:32:14;;;;;;;0.10;0.10;;;;;;;;;;5027031;28;20058;-78
2023/12/09 14:34:40;;;;;;;0.10;0.10;;;;;;;;;;5008022;28;20050;-77
2023/12/09 14:37:08;;;;;;;0.52;0.52;;;;;;;;;;5007612;28;20064;-77
2023/12/09 14:39:36;;;;;;;0.30;0.30;;;;;;;;;;5004920;28;20054;-78
2023/12/09 14:42:08;;;;;;;0.10;0.10;;;;;;;;;;5007523;28;20054;-78
2023/12/09 14:44:35;;;;;;;0.10;0.10;;;;;;;;;;5023029;28;20058;-77